createdAt,value
2022-09-24T00:01:41.582Z,95683.03
2022-09-24T00:04:12.124Z,95677.59
2022-09-24T00:06:44.447Z,95678.78
2022-09-24T00:09:14.278Z,95683.47
2022-09-24T00:11:43.625Z,95673.13
2022-09-24T00:14:11.517Z,95678.28
2022-09-24T00:16:41.693Z,95682.28
2022-09-24T00:19:10.352Z,95679.59
2022-09-24T00:21:39.572Z,95643.19
2022-09-24T00:24:11.414Z,95650.84
2022-09-24T00:26:50.087Z,95676.13
2022-09-24T00:29:19.952Z,95674.81
2022-09-24T00:31:48.182Z,95677.50
2022-09-24T00:34:16.308Z,95683.78
2022-09-24T00:36:44.777Z,95682.47
2022-09-24T00:39:14.378Z,95676.03
2022-09-24T00:41:44.928Z,95677.41
2022-09-24T00:44:50.818Z,95676.53
2022-09-24T00:47:32.018Z,95677.34
2022-09-24T00:50:07.981Z,95670.78
2022-09-24T00:52:39.696Z,95668.28
2022-09-24T00:55:10.710Z,95609.44
2022-09-24T00:57:39.802Z,95657.38
2022-09-24T01:00:08.859Z,95660.53
2022-09-24T01:02:39.404Z,95667.38
2022-09-24T01:05:08.392Z,95658.88
2022-09-24T01:07:36.588Z,95661.81
2022-09-24T01:10:05.519Z,95658.25
2022-09-24T01:12:45.242Z,95560.91
2022-09-24T01:15:22.871Z,95660.09
2022-09-24T01:17:57.136Z,95657.19
2022-09-24T01:20:48.336Z,95657.94
2022-09-24T01:23:48.774Z,95663.81
2022-09-24T01:26:32.345Z,95653.53
2022-09-24T01:29:20.477Z,95659.63
2022-09-24T01:31:54.616Z,95649.28
2022-09-24T01:34:27.880Z,95595.69
2022-09-24T01:36:58.181Z,95660.56
2022-09-24T01:39:27.088Z,95660.25
2022-09-24T01:41:57.295Z,95653.31
2022-09-24T01:44:27.067Z,95661.31
2022-09-24T01:46:55.950Z,95657.03
2022-09-24T01:49:23.962Z,95661.63
2022-09-24T01:51:55.871Z,95667.88
2022-09-24T01:54:28.930Z,95657.09
2022-09-24T01:57:03.650Z,95665.75
2022-09-24T01:59:38.153Z,95668.44
2022-09-24T02:02:09.459Z,95665.38
2022-09-24T02:04:43.653Z,95677.69
2022-09-24T02:07:16.442Z,95633.91
2022-09-24T02:09:45.392Z,95682.91
2022-09-24T02:12:18.927Z,95684.50
2022-09-24T02:14:52.476Z,95685.38
2022-09-24T02:17:20.618Z,95687.84
2022-09-24T02:19:51.109Z,95694.25
2022-09-24T02:22:18.997Z,95700.00
2022-09-24T02:24:49.539Z,95696.56
2022-09-24T02:27:17.815Z,95695.50
2022-09-24T02:29:46.289Z,95676.56
2022-09-24T02:32:18.896Z,95703.88
2022-09-24T02:34:55.484Z,95689.13
2022-09-24T02:37:25.334Z,95689.91
2022-09-24T02:39:53.274Z,95703.16
2022-09-24T02:42:22.262Z,95714.72
2022-09-24T02:44:50.253Z,95701.63
2022-09-24T02:47:19.557Z,95709.09
2022-09-24T02:49:47.393Z,95700.97
2022-09-24T02:52:15.223Z,95725.25
2022-09-24T02:54:43.306Z,95723.09
2022-09-24T02:57:11.147Z,95721.56
2022-09-24T02:59:38.983Z,95726.75
2022-09-24T03:02:07.176Z,95730.66
2022-09-24T03:04:36.565Z,95728.84
2022-09-24T03:07:04.377Z,95724.34
2022-09-24T03:09:32.363Z,95723.66
2022-09-24T03:12:00.955Z,95717.56
2022-09-24T03:14:29.112Z,95720.97
2022-09-24T03:16:56.956Z,95725.78
2022-09-24T03:19:24.765Z,95719.66
2022-09-24T03:21:53.967Z,95721.25
2022-09-24T03:24:21.975Z,95725.00
2022-09-24T03:26:49.777Z,95727.16
2022-09-24T03:29:37.593Z,95726.63
2022-09-24T03:32:04.501Z,95722.66
2022-09-24T03:34:32.302Z,95734.03
2022-09-24T03:37:01.551Z,95726.13
2022-09-24T03:39:29.402Z,95728.91
2022-09-24T03:41:57.221Z,95737.19
2022-09-24T03:44:25.821Z,95738.84
2022-09-24T03:46:53.749Z,95741.81
2022-09-24T03:49:23.448Z,95741.59
2022-09-24T03:51:51.380Z,95744.09
2022-09-24T03:54:20.754Z,95697.78
2022-09-24T03:56:48.583Z,95742.72
2022-09-24T03:59:16.417Z,95748.59
2022-09-24T04:01:44.265Z,95745.63
2022-09-24T04:04:15.360Z,95753.25
2022-09-24T04:06:43.169Z,95745.41
2022-09-24T04:09:11.286Z,95757.13
2022-09-24T04:11:40.463Z,95714.19
2022-09-24T04:14:08.491Z,95753.38
2022-09-24T04:16:36.614Z,95752.31
2022-09-24T04:19:04.552Z,95757.25
2022-09-24T04:21:32.384Z,95749.78
2022-09-24T04:24:00.258Z,95746.50
2022-09-24T04:26:28.052Z,95758.19
2022-09-24T04:28:59.298Z,95751.88
2022-09-24T04:31:27.658Z,95690.94
2022-09-24T04:33:55.847Z,95695.88
2022-09-24T04:36:23.715Z,95774.34
2022-09-24T04:38:51.553Z,95773.22
2022-09-24T04:41:19.475Z,95770.59
2022-09-24T04:43:47.406Z,95779.28
2022-09-24T04:46:19.238Z,95767.50
2022-09-24T04:48:47.188Z,95767.81
2022-09-24T04:51:15.751Z,95769.00
2022-09-24T04:53:43.563Z,95770.09
2022-09-24T04:56:12.156Z,95772.06
2022-09-24T04:58:40.576Z,95780.78
2022-09-24T05:01:08.468Z,95779.09
2022-09-24T05:03:37.695Z,95605.94
2022-09-24T05:06:07.016Z,95774.50
2022-09-24T05:08:34.868Z,95768.75
2022-09-24T05:11:03.105Z,95764.06
2022-09-24T05:13:30.935Z,95773.91
2022-09-24T05:16:01.050Z,95778.31
2022-09-24T05:18:29.276Z,95767.59
2022-09-24T05:20:58.463Z,95777.53
2022-09-24T05:23:26.295Z,95774.34
2022-09-24T05:26:11.568Z,95770.56
2022-09-24T05:28:40.553Z,95770.81
2022-09-24T05:31:09.208Z,95771.31
2022-09-24T05:33:37.642Z,95780.22
2022-09-24T05:36:07.365Z,95741.97
2022-09-24T05:38:35.192Z,95785.31
2022-09-24T05:41:03.761Z,95784.09
2022-09-24T05:43:31.916Z,95787.97
2022-09-24T05:45:59.950Z,95790.50
2022-09-24T05:48:28.287Z,95797.56
2022-09-24T05:50:56.502Z,95792.44
2022-09-24T05:53:25.816Z,95794.22
2022-09-24T05:55:53.749Z,95790.03
2022-09-24T05:58:21.579Z,95795.59
2022-09-24T06:00:49.912Z,95790.75
2022-09-24T06:03:19.110Z,95795.00
2022-09-24T06:05:48.596Z,95785.09
2022-09-24T06:08:17.056Z,95752.44
2022-09-24T06:10:47.400Z,95778.56
2022-09-24T06:13:17.692Z,95797.44
2022-09-24T06:15:46.309Z,95795.63
2022-09-24T06:18:14.327Z,95803.84
2022-09-24T06:20:42.136Z,95810.50
2022-09-24T06:23:10.017Z,95797.09
2022-09-24T06:25:37.855Z,95791.78
2022-09-24T06:28:07.057Z,95810.09
2022-09-24T06:30:38.095Z,95806.97
2022-09-24T06:33:08.504Z,95807.31
2022-09-24T06:35:36.986Z,95813.28
2022-09-24T06:38:05.062Z,95817.94
2022-09-24T06:40:36.915Z,95815.28
2022-09-24T06:43:07.111Z,95760.78
2022-09-24T06:45:35.469Z,95814.69
2022-09-24T06:48:05.594Z,95806.19
2022-09-24T06:50:35.433Z,95771.78
2022-09-24T06:53:06.512Z,95803.31
2022-09-24T06:55:35.152Z,95801.63
2022-09-24T06:58:06.744Z,95803.47
2022-09-24T07:00:35.412Z,95790.41
2022-09-24T07:03:03.360Z,95792.38
2022-09-24T07:05:31.437Z,95812.81
2022-09-24T07:07:59.255Z,95805.94
2022-09-24T07:10:28.018Z,95799.25
2022-09-24T07:12:56.159Z,95802.38
2022-09-24T07:15:25.367Z,95813.94
2022-09-24T07:17:56.633Z,95808.97
2022-09-24T07:20:24.862Z,95816.94
2022-09-24T07:22:52.682Z,95800.59
2022-09-24T07:25:20.551Z,95799.25
2022-09-24T07:27:48.506Z,95799.94
2022-09-24T07:30:16.831Z,95802.03
2022-09-24T07:32:46.036Z,95802.16
2022-09-24T07:35:13.852Z,95795.75
2022-09-24T07:37:41.656Z,95801.28
2022-09-24T07:40:10.275Z,95800.78
2022-09-24T07:42:39.129Z,95805.00
2022-09-24T07:45:07.688Z,95797.72
2022-09-24T07:47:35.511Z,95800.63
2022-09-24T07:50:05.222Z,95794.44
2022-09-24T07:52:33.028Z,95787.44
2022-09-24T07:55:00.926Z,95786.47
2022-09-24T07:57:28.844Z,95777.94
2022-09-24T07:59:56.696Z,95787.47
2022-09-24T08:02:25.065Z,95788.19
2022-09-24T08:04:52.876Z,95787.09
2022-09-24T08:07:22.080Z,95790.41
2022-09-24T08:09:49.900Z,95790.03
2022-09-24T08:12:17.719Z,95790.47
2022-09-24T08:14:45.548Z,95785.72
2022-09-24T08:17:13.606Z,95782.22
2022-09-24T08:19:43.297Z,95776.84
2022-09-24T08:22:11.177Z,95787.81
2022-09-24T08:24:40.352Z,95782.97
2022-09-24T08:27:08.174Z,95791.34
2022-09-24T08:29:36.219Z,95772.94
2022-09-24T08:32:04.249Z,95779.59
2022-09-24T08:34:38.262Z,95774.66
2022-09-24T08:37:06.213Z,95773.41
2022-09-24T08:39:34.236Z,95772.59
2022-09-24T08:42:06.603Z,95770.06
2022-09-24T08:44:57.144Z,95737.94
2022-09-24T08:47:36.015Z,95765.75
2022-09-24T08:50:10.330Z,95766.28
2022-09-24T08:52:51.201Z,95772.28
2022-09-24T08:55:23.240Z,95732.16
2022-09-24T08:57:59.955Z,95740.91
2022-09-24T09:00:32.024Z,95759.38
2022-09-24T09:03:06.407Z,95760.22
2022-09-24T09:05:51.085Z,95720.59
2022-09-24T09:11:22.948Z,95743.00
2022-09-24T09:13:57.662Z,95741.53
2022-09-24T09:16:29.092Z,95733.84
2022-09-24T09:19:04.860Z,95732.56
2022-09-24T09:21:38.563Z,95726.94
2022-09-24T09:24:13.922Z,95736.53
2022-09-24T09:26:42.373Z,95736.41
2022-09-24T09:29:11.842Z,95733.44
2022-09-24T09:31:56.126Z,95727.44
2022-09-24T09:34:50.704Z,95723.50
2022-09-24T09:37:27.125Z,95720.00
2022-09-24T09:40:05.189Z,95718.94
2022-09-24T09:42:36.341Z,95715.41
2022-09-24T09:45:24.213Z,95708.56
2022-09-24T09:47:58.093Z,95692.59
2022-09-24T09:50:29.077Z,95699.22
2022-09-24T09:52:57.445Z,95702.66
2022-09-24T09:55:28.691Z,95687.13
2022-09-24T09:58:10.718Z,95696.94
2022-09-24T10:00:40.010Z,95679.34
2022-09-24T10:03:08.292Z,95664.09
2022-09-24T10:05:36.391Z,95672.69
2022-09-24T10:08:04.268Z,95626.81
2022-09-24T10:10:32.132Z,95677.44
2022-09-24T10:13:10.209Z,95663.28
2022-09-24T10:15:51.112Z,95647.63
2022-09-24T10:18:28.402Z,95646.75
2022-09-24T10:20:57.932Z,95647.41
2022-09-24T10:23:33.236Z,95642.63
2022-09-24T10:26:03.040Z,95651.38
2022-09-24T10:28:49.855Z,95654.16
2022-09-24T10:31:23.017Z,95649.66
2022-09-24T10:33:53.384Z,95652.59
2022-09-24T10:36:23.016Z,95633.25
2022-09-24T10:38:51.153Z,95633.69
2022-09-24T10:41:27.978Z,95632.16
2022-09-24T10:43:57.536Z,95599.97
2022-09-24T10:46:45.846Z,95640.00
2022-09-24T10:49:23.659Z,95614.72
2022-09-24T10:51:59.881Z,95631.22
2022-09-24T10:54:48.161Z,95588.84
2022-09-24T10:57:26.406Z,95631.16
2022-09-24T11:00:03.043Z,95631.75
2022-09-24T11:02:54.061Z,95632.28
2022-09-24T11:05:23.826Z,95617.41
2022-09-24T11:08:02.920Z,95640.00
2022-09-24T11:10:51.384Z,95627.19
2022-09-24T11:13:28.235Z,95624.94
2022-09-24T11:16:18.355Z,95623.66
2022-09-24T11:18:57.669Z,95602.72
2022-09-24T11:21:40.197Z,95613.63
2022-09-24T11:24:32.897Z,95610.41
2022-09-24T11:27:16.561Z,95611.19
2022-09-24T11:29:57.826Z,95609.59
2022-09-24T11:32:33.173Z,95594.91
2022-09-24T11:35:17.953Z,95578.16
2022-09-24T11:37:58.528Z,95594.28
2022-09-24T11:40:39.741Z,95599.44
2022-09-24T11:43:25.611Z,95582.72
2022-09-24T11:46:07.175Z,95577.81
2022-09-24T11:48:51.068Z,95577.59
2022-09-24T11:51:30.860Z,95586.97
2022-09-24T11:54:04.391Z,95577.41
2022-09-24T11:56:35.049Z,95582.94
2022-09-24T11:59:17.763Z,95566.38
2022-09-24T12:01:49.613Z,95567.72
2022-09-24T12:04:22.844Z,95559.75
2022-09-24T12:06:59.023Z,95558.84
2022-09-24T12:09:32.972Z,95558.38
2022-09-24T12:12:07.915Z,95549.41
2022-09-24T12:14:46.094Z,95554.84
2022-09-24T12:17:21.590Z,95570.53
2022-09-24T12:19:54.420Z,95570.03
2022-09-24T12:22:25.793Z,95569.84
2022-09-24T12:24:58.559Z,95561.25
2022-09-24T12:27:34.230Z,95555.38
2022-09-24T12:30:49.536Z,95561.66
2022-09-24T12:33:24.103Z,95559.09
2022-09-24T12:36:05.822Z,95526.34
2022-09-24T12:38:38.221Z,95552.00
2022-09-24T12:41:24.809Z,95441.22
2022-09-24T12:43:59.142Z,95568.16
2022-09-24T12:46:30.696Z,95559.38
2022-09-24T12:48:58.703Z,95568.44
2022-09-24T12:51:36.688Z,95525.09
2022-09-24T12:54:21.747Z,95550.78
2022-09-24T12:56:49.648Z,95552.19
2022-09-24T12:59:28.393Z,95542.78
2022-09-24T13:02:07.542Z,95548.47
2022-09-24T13:04:36.192Z,95520.38
2022-09-24T13:07:04.085Z,95534.84
2022-09-24T13:09:38.836Z,95531.38
2022-09-24T13:12:21.404Z,95531.84
2022-09-24T13:14:56.399Z,95527.13
2022-09-24T13:17:25.458Z,95531.78
2022-09-24T13:19:59.739Z,95527.50
2022-09-24T13:22:30.765Z,95499.34
2022-09-24T13:25:23.801Z,95509.47
2022-09-24T13:28:02.236Z,95520.84
2022-09-24T13:30:38.147Z,95520.47
2022-09-24T13:33:19.185Z,95513.03
2022-09-24T13:35:56.725Z,95505.59
2022-09-24T13:38:30.013Z,95510.28
2022-09-24T13:41:05.077Z,95507.13
2022-09-24T13:43:44.995Z,95502.81
2022-09-24T13:46:17.800Z,95504.75
2022-09-24T13:48:52.574Z,95487.09
2022-09-24T13:51:26.461Z,95498.13
2022-09-24T13:54:00.814Z,95496.59
2022-09-24T13:56:30.308Z,95491.53
2022-09-24T13:59:07.021Z,95489.97
2022-09-24T14:01:42.103Z,95474.72
2022-09-24T14:04:18.132Z,95485.31
2022-09-24T14:06:50.228Z,95474.75
2022-09-24T14:09:27.351Z,95482.97
2022-09-24T14:11:58.579Z,95478.25
2022-09-24T14:14:28.776Z,95481.00
2022-09-24T14:17:08.166Z,95475.91
2022-09-24T14:19:36.240Z,95482.16
2022-09-24T14:22:07.568Z,95480.22
2022-09-24T14:24:37.155Z,95481.00
2022-09-24T14:27:10.081Z,95479.03
2022-09-24T14:29:48.356Z,95431.66
2022-09-24T14:32:23.990Z,95477.09
2022-09-24T14:34:54.923Z,95473.97
2022-09-24T14:37:26.295Z,95473.56
2022-09-24T14:40:00.815Z,95467.28
2022-09-24T14:42:34.477Z,95477.88
2022-09-24T14:45:04.641Z,95485.31
2022-09-24T14:47:34.093Z,95462.59
2022-09-24T14:50:04.092Z,95488.44
2022-09-24T14:52:34.101Z,95364.63
2022-09-24T14:55:18.622Z,95488.84
2022-09-24T14:57:52.749Z,95487.28
2022-09-24T15:00:25.800Z,95490.78
2022-09-24T15:02:59.541Z,95486.84
2022-09-24T15:05:29.284Z,95486.84
2022-09-24T15:08:17.011Z,95488.03
2022-09-24T15:10:53.088Z,95484.88
2022-09-24T15:13:25.381Z,95488.41
2022-09-24T15:16:19.272Z,95473.47
2022-09-24T15:18:57.267Z,95486.00
2022-09-24T15:21:25.125Z,95491.06
2022-09-24T15:23:52.930Z,95500.06
2022-09-24T15:26:21.363Z,95484.03
2022-09-24T15:28:50.590Z,95498.47
2022-09-24T15:31:18.528Z,95489.88
2022-09-24T15:33:46.375Z,95495.75
2022-09-24T15:36:15.115Z,95505.16
2022-09-24T15:38:43.089Z,95502.00
2022-09-24T15:41:10.916Z,95509.03
2022-09-24T15:43:38.769Z,95500.47
2022-09-24T15:46:08.216Z,95505.94
2022-09-24T15:48:36.081Z,95504.72
2022-09-24T15:51:10.102Z,95507.06
2022-09-24T15:53:39.733Z,95507.34
2022-09-24T15:56:08.141Z,95510.03
2022-09-24T15:58:36.037Z,95516.22
2022-09-24T16:01:04.248Z,95515.00
2022-09-24T16:03:33.845Z,95520.00
2022-09-24T16:06:02.633Z,95522.19
2022-09-24T16:08:30.446Z,95523.63
2022-09-24T16:10:58.272Z,95521.53
2022-09-24T16:13:26.383Z,95523.81
2022-09-24T16:15:54.346Z,95509.22
2022-09-24T16:18:25.949Z,95524.47
2022-09-24T16:20:55.219Z,95524.31
2022-09-24T16:23:23.058Z,95527.72
2022-09-24T16:25:58.176Z,95529.56
2022-09-24T16:28:27.782Z,95535.34
2022-09-24T16:30:55.728Z,95535.63
2022-09-24T16:33:23.625Z,95531.66
2022-09-24T16:35:51.481Z,95544.44
2022-09-24T16:38:23.153Z,95545.16
2022-09-24T16:40:52.091Z,95541.94
2022-09-24T16:43:20.238Z,95545.69
2022-09-24T16:45:48.051Z,95546.75
2022-09-24T16:48:15.882Z,95544.22
2022-09-24T16:50:43.728Z,95454.06
2022-09-24T16:53:11.592Z,95548.00
2022-09-24T16:55:40.797Z,95554.09
2022-09-24T16:58:09.515Z,95558.31
2022-09-24T17:00:37.795Z,95555.19
2022-09-24T17:03:05.826Z,95539.50
2022-09-24T17:05:40.644Z,95556.66
2022-09-24T17:08:08.537Z,95558.66
2022-09-24T17:10:35.358Z,95405.47
2022-09-24T17:13:04.579Z,95573.78
2022-09-24T17:15:32.472Z,95571.28
2022-09-24T17:18:00.355Z,95569.16
2022-09-24T17:20:28.245Z,95584.31
2022-09-24T17:22:56.065Z,95587.28
2022-09-24T17:25:24.038Z,95588.28
2022-09-24T17:27:51.881Z,95590.84
2022-09-24T17:30:21.515Z,95585.59
2022-09-24T17:32:49.335Z,95590.56
2022-09-24T17:35:17.330Z,95594.97
2022-09-24T17:37:45.302Z,95596.75
2022-09-24T17:40:13.244Z,95600.28
2022-09-24T17:42:45.893Z,95601.44
2022-09-24T17:45:13.803Z,95599.72
2022-09-24T17:47:57.901Z,95609.31
2022-09-24T17:50:25.892Z,95610.72
2022-09-24T17:52:53.720Z,95553.09
2022-09-24T17:55:21.566Z,95614.50
2022-09-24T17:57:50.170Z,95611.25
2022-09-24T18:00:55.212Z,95615.00
2022-09-24T18:03:24.454Z,95617.09
2022-09-24T18:05:52.303Z,95603.66
2022-09-24T18:08:20.186Z,95607.63
2022-09-24T18:10:48.035Z,95462.47
2022-09-24T18:13:17.081Z,95607.81
2022-09-24T18:15:45.916Z,95602.28
2022-09-24T18:18:13.785Z,95605.47
2022-09-24T18:20:43.021Z,95605.19
2022-09-24T18:23:10.866Z,95612.59
2022-09-24T18:25:38.776Z,95606.97
2022-09-24T18:28:06.612Z,95612.56
2022-09-24T18:30:34.503Z,95623.94
2022-09-24T18:33:02.637Z,95608.00
2022-09-24T18:35:30.609Z,95622.09
2022-09-24T18:37:59.841Z,95641.34
2022-09-24T18:40:28.132Z,95475.88
2022-09-24T18:42:58.133Z,95633.28
2022-09-24T18:45:26.019Z,95621.34
2022-09-24T18:47:55.052Z,95641.25
2022-09-24T18:50:22.917Z,95640.38
2022-09-24T18:52:50.770Z,95629.53
2022-09-24T18:55:20.170Z,95630.44
2022-09-24T18:57:48.012Z,95632.94
2022-09-24T19:00:29.983Z,95628.47
2022-09-24T19:02:58.724Z,95626.53
2022-09-24T19:05:26.712Z,95627.13
2022-09-24T19:07:54.564Z,95624.19
2022-09-24T19:10:23.791Z,95625.13
2022-09-24T19:12:53.487Z,95626.47
2022-09-24T19:15:21.330Z,95626.03
2022-09-24T19:17:49.413Z,95635.53
2022-09-24T19:20:17.481Z,95638.00
2022-09-24T19:22:48.230Z,95637.06
2022-09-24T19:25:16.456Z,95494.16
2022-09-24T19:27:45.722Z,95614.63
2022-09-24T19:30:13.892Z,95629.84
2022-09-24T19:32:41.751Z,95637.53
2022-09-24T19:35:10.083Z,95635.69
2022-09-24T19:37:37.942Z,95643.09
2022-09-24T19:40:06.568Z,95647.47
2022-09-24T19:42:34.457Z,95649.56
2022-09-24T19:45:04.672Z,95654.44
2022-09-24T19:47:32.932Z,95614.22
2022-09-24T19:50:00.801Z,95651.38
2022-09-24T19:52:28.749Z,95654.22
2022-09-24T19:54:56.593Z,95642.16
2022-09-24T19:57:24.624Z,95652.53
2022-09-24T19:59:52.448Z,95611.38
2022-09-24T20:02:21.794Z,95657.88
2022-09-24T20:04:49.753Z,95658.09
2022-09-24T20:07:18.441Z,95656.38
2022-09-24T20:09:46.326Z,95658.28
2022-09-24T20:12:18.305Z,95663.69
2022-09-24T20:14:46.647Z,95657.75
2022-09-24T20:17:16.918Z,95667.91
2022-09-24T20:19:46.128Z,95663.59
2022-09-24T20:22:17.260Z,95664.84
2022-09-24T20:24:45.413Z,95664.59
2022-09-24T20:27:30.664Z,95674.06
2022-09-24T20:29:58.522Z,95670.31
2022-09-24T20:32:26.432Z,95670.38
2022-09-24T20:34:55.697Z,95653.91
2022-09-24T20:37:23.549Z,95641.44
2022-09-24T20:39:51.409Z,95677.47
2022-09-24T20:42:19.253Z,95672.41
2022-09-24T20:44:48.951Z,95677.81
2022-09-24T20:47:16.893Z,95681.97
2022-09-24T20:49:44.744Z,95662.75
2022-09-24T20:52:13.991Z,95674.00
2022-09-24T20:54:41.836Z,95680.31
2022-09-24T20:57:09.708Z,95669.50
2022-09-24T20:59:37.560Z,95681.63
2022-09-24T21:02:05.511Z,95673.53
2022-09-24T21:04:35.236Z,95669.06
2022-09-24T21:07:03.065Z,95673.84
2022-09-24T21:09:32.643Z,95687.72
2022-09-24T21:12:01.447Z,95677.97
2022-09-24T21:14:29.291Z,95675.00
2022-09-24T21:16:57.159Z,95670.41
2022-09-24T21:19:25.821Z,95682.13
2022-09-24T21:21:53.899Z,95674.44
2022-09-24T21:24:25.120Z,95680.75
2022-09-24T21:26:59.052Z,95666.88
2022-09-24T21:29:26.937Z,95630.66
2022-09-24T21:31:54.788Z,95680.28
2022-09-24T21:34:23.057Z,95652.94
2022-09-24T21:36:52.385Z,95685.94
2022-09-24T21:39:23.051Z,95687.06
2022-09-24T21:41:55.015Z,95678.84
2022-09-24T21:44:24.249Z,95671.25
2022-09-24T21:46:53.021Z,95676.31
2022-09-24T21:49:22.821Z,95626.75
2022-09-24T21:51:50.697Z,95675.06
2022-09-24T21:54:19.450Z,95669.84
2022-09-24T21:56:47.964Z,95678.06
2022-09-24T21:59:34.090Z,95705.50
2022-09-24T22:02:04.234Z,95665.56
2022-09-24T22:04:33.311Z,95669.69
2022-09-24T22:07:01.429Z,95666.19
2022-09-24T22:09:29.704Z,95676.34
2022-09-24T22:11:57.762Z,95677.31
2022-09-24T22:14:25.600Z,95677.63
2022-09-24T22:16:54.195Z,95632.75
2022-09-24T22:19:23.672Z,95683.03
2022-09-24T22:21:52.331Z,95677.78
2022-09-24T22:24:20.553Z,95667.81
2022-09-24T22:26:48.485Z,95686.03
2022-09-24T22:29:16.366Z,95678.75
2022-09-24T22:31:44.215Z,95676.22
2022-09-24T22:34:29.894Z,95679.53
2022-09-24T22:36:59.116Z,95663.84
2022-09-24T22:39:27.106Z,95675.88
2022-09-24T22:41:54.960Z,95674.75
2022-09-24T22:44:22.911Z,95673.34
2022-09-24T22:46:50.769Z,95669.72
2022-09-24T22:49:19.685Z,95669.22
2022-09-24T22:51:47.569Z,95686.00
2022-09-24T22:54:16.787Z,95675.88
2022-09-24T22:56:44.651Z,95687.13
2022-09-24T22:59:12.532Z,95678.41
2022-09-24T23:01:41.839Z,95688.25
2022-09-24T23:04:13.303Z,95687.75
2022-09-24T23:06:41.359Z,95624.69
2022-09-24T23:09:09.472Z,95683.00
2022-09-24T23:11:38.832Z,95689.66
2022-09-24T23:14:12.379Z,95688.69
2022-09-24T23:16:40.755Z,95691.41
2022-09-24T23:19:12.925Z,95683.00
2022-09-24T23:21:41.574Z,95685.22
2022-09-24T23:24:14.199Z,95681.41
2022-09-24T23:26:44.132Z,95664.63
2022-09-24T23:29:13.058Z,95682.19
2022-09-24T23:31:41.213Z,95648.09
2022-09-24T23:34:12.921Z,95675.22
2022-09-24T23:36:40.820Z,95682.34
2022-09-24T23:39:08.646Z,95675.72
2022-09-24T23:41:37.181Z,95669.53
2022-09-24T23:44:06.811Z,95671.72
2022-09-24T23:46:34.774Z,95679.50
2022-09-24T23:49:02.942Z,95679.00
2022-09-24T23:51:30.787Z,95683.91
2022-09-24T23:53:58.624Z,95679.91
2022-09-24T23:56:26.465Z,95661.31
2022-09-24T23:58:55.034Z,95672.94
